sensor_id;sensor_type;location;lat;lon;timestamp;temperature;humidity
19224;DHT22;9746;47.180;9.776;2024-03-25T08:43:04;7.80;99.90
19224;DHT22;9746;47.180;9.776;2024-03-25T08:45:41;7.90;99.90
19224;DHT22;9746;47.180;9.776;2024-03-25T08:48:07;7.80;99.90
19224;DHT22;9746;47.180;9.776;2024-03-25T08:50:38;7.90;99.90
19224;DHT22;9746;47.180;9.776;2024-03-25T08:53:05;8.00;99.90
19224;DHT22;9746;47.180;9.776;2024-03-25T08:58:55;8.40;99.90
19224;DHT22;9746;47.180;9.776;2024-03-25T09:01:21;8.50;99.90
19224;DHT22;9746;47.180;9.776;2024-03-25T09:03:48;8.90;99.90
19224;DHT22;9746;47.180;9.776;2024-03-25T09:06:14;9.30;99.90
19224;DHT22;9746;47.180;9.776;2024-03-25T09:08:40;9.50;99.90
19224;DHT22;9746;47.180;9.776;2024-03-25T09:11:22;9.80;99.90
19224;DHT22;9746;47.180;9.776;2024-03-25T09:13:58;10.20;99.90
19224;DHT22;9746;47.180;9.776;2024-03-25T09:16:24;10.50;99.90
19224;DHT22;9746;47.180;9.776;2024-03-25T09:19:07;10.70;99.90
19224;DHT22;9746;47.180;9.776;2024-03-25T09:21:33;10.90;99.90
19224;DHT22;9746;47.180;9.776;2024-03-25T09:23:59;11.20;99.90
19224;DHT22;9746;47.180;9.776;2024-03-25T09:26:26;11.50;99.90
19224;DHT22;9746;47.180;9.776;2024-03-25T09:28:52;11.70;99.90
19224;DHT22;9746;47.180;9.776;2024-03-25T09:31:39;11.80;99.90
19224;DHT22;9746;47.180;9.776;2024-03-25T09:34:06;12.10;99.90
19224;DHT22;9746;47.180;9.776;2024-03-25T09:36:33;12.40;99.90
19224;DHT22;9746;47.180;9.776;2024-03-25T09:38:59;12.60;99.90
19224;DHT22;9746;47.180;9.776;2024-03-25T09:41:28;12.70;99.90
19224;DHT22;9746;47.180;9.776;2024-03-25T09:43:55;13.00;99.90
19224;DHT22;9746;47.180;9.776;2024-03-25T09:46:32;13.30;99.90
19224;DHT22;9746;47.180;9.776;2024-03-25T09:49:01;13.60;99.90
19224;DHT22;9746;47.180;9.776;2024-03-25T09:51:31;14.00;99.90
19224;DHT22;9746;47.180;9.776;2024-03-25T09:53:58;14.20;99.90
19224;DHT22;9746;47.180;9.776;2024-03-25T09:59:55;14.40;99.90
19224;DHT22;9746;47.180;9.776;2024-03-25T10:02:21;14.10;99.90
19224;DHT22;9746;47.180;9.776;2024-03-25T10:05:03;13.80;99.90
19224;DHT22;9746;47.180;9.776;2024-03-25T10:07:30;14.20;99.90
19224;DHT22;9746;47.180;9.776;2024-03-25T10:12:55;14.70;99.90
19224;DHT22;9746;47.180;9.776;2024-03-25T10:18:43;15.50;99.90
19224;DHT22;9746;47.180;9.776;2024-03-25T10:24:43;16.30;99.90
19224;DHT22;9746;47.180;9.776;2024-03-25T10:27:17;16.80;99.90
19224;DHT22;9746;47.180;9.776;2024-03-25T10:29:57;17.10;99.90
19224;DHT22;9746;47.180;9.776;2024-03-25T10:32:23;17.40;98.90
19224;DHT22;9746;47.180;9.776;2024-03-25T10:35:21;17.60;96.70
19224;DHT22;9746;47.180;9.776;2024-03-25T10:37:48;17.70;96.60
19224;DHT22;9746;47.180;9.776;2024-03-25T10:43:29;18.20;94.30
19224;DHT22;9746;47.180;9.776;2024-03-25T10:46:01;18.40;91.40
19224;DHT22;9746;47.180;9.776;2024-03-25T10:48:30;18.60;91.80
19224;DHT22;9746;47.180;9.776;2024-03-25T10:53:54;18.90;88.00
19224;DHT22;9746;47.180;9.776;2024-03-25T10:59:46;19.30;84.40
19224;DHT22;9746;47.180;9.776;2024-03-25T11:02:13;19.80;81.60
19224;DHT22;9746;47.180;9.776;2024-03-25T11:04:41;20.10;81.40
19224;DHT22;9746;47.180;9.776;2024-03-25T11:07:08;20.30;78.80
19224;DHT22;9746;47.180;9.776;2024-03-25T11:09:34;20.60;79.90
19224;DHT22;9746;47.180;9.776;2024-03-25T11:12:02;21.10;78.60
19224;DHT22;9746;47.180;9.776;2024-03-25T11:14:29;21.50;79.70
19224;DHT22;9746;47.180;9.776;2024-03-25T11:20:19;22.10;72.30
19224;DHT22;9746;47.180;9.776;2024-03-25T11:22:49;22.60;70.70
19224;DHT22;9746;47.180;9.776;2024-03-25T11:28:38;23.00;69.10
19224;DHT22;9746;47.180;9.776;2024-03-25T11:31:34;22.80;66.50
19224;DHT22;9746;47.180;9.776;2024-03-25T11:34:05;22.90;65.40
19224;DHT22;9746;47.180;9.776;2024-03-25T11:40:02;23.50;61.00
19224;DHT22;9746;47.180;9.776;2024-03-25T11:42:30;23.80;59.10
19224;DHT22;9746;47.180;9.776;2024-03-25T11:48:18;24.40;58.90
19224;DHT22;9746;47.180;9.776;2024-03-25T11:54:20;24.80;58.10
19224;DHT22;9746;47.180;9.776;2024-03-25T11:57:04;25.10;56.30
19224;DHT22;9746;47.180;9.776;2024-03-25T11:59:30;25.70;55.50
19224;DHT22;9746;47.180;9.776;2024-03-25T12:05:19;26.40;53.50
19224;DHT22;9746;47.180;9.776;2024-03-25T12:07:45;26.50;52.20
19224;DHT22;9746;47.180;9.776;2024-03-25T12:13:35;26.90;48.20
19224;DHT22;9746;47.180;9.776;2024-03-25T12:19:24;27.60;48.20
19224;DHT22;9746;47.180;9.776;2024-03-25T12:22:01;26.50;42.50
19224;DHT22;9746;47.180;9.776;2024-03-25T12:24:28;25.90;45.60
19224;DHT22;9746;47.180;9.776;2024-03-25T12:27:05;26.80;44.90
19224;DHT22;9746;47.180;9.776;2024-03-25T12:29:33;27.60;45.80
19224;DHT22;9746;47.180;9.776;2024-03-25T12:34:50;29.00;45.20
19224;DHT22;9746;47.180;9.776;2024-03-25T12:37:20;29.80;43.60
19224;DHT22;9746;47.180;9.776;2024-03-25T12:39:47;30.10;43.20
19224;DHT22;9746;47.180;9.776;2024-03-25T12:42:18;30.20;41.30
19224;DHT22;9746;47.180;9.776;2024-03-25T12:44:48;30.50;41.40
19224;DHT22;9746;47.180;9.776;2024-03-25T12:47:15;30.80;40.20
19224;DHT22;9746;47.180;9.776;2024-03-25T12:49:42;30.60;41.00
19224;DHT22;9746;47.180;9.776;2024-03-25T12:52:18;31.10;40.20
19224;DHT22;9746;47.180;9.776;2024-03-25T12:54:45;31.50;39.10
19224;DHT22;9746;47.180;9.776;2024-03-25T12:57:15;31.80;38.80
19224;DHT22;9746;47.180;9.776;2024-03-25T12:59:41;32.50;37.40
19224;DHT22;9746;47.180;9.776;2024-03-25T13:05:01;32.70;36.20
19224;DHT22;9746;47.180;9.776;2024-03-25T13:07:46;30.40;32.40
19224;DHT22;9746;47.180;9.776;2024-03-25T13:10:12;28.40;34.20
19224;DHT22;9746;47.180;9.776;2024-03-25T13:15:58;29.50;35.60
19224;DHT22;9746;47.180;9.776;2024-03-25T13:18:24;30.40;36.70
19224;DHT22;9746;47.180;9.776;2024-03-25T13:21:06;29.70;34.40
19224;DHT22;9746;47.180;9.776;2024-03-25T13:23:33;29.10;36.90
19224;DHT22;9746;47.180;9.776;2024-03-25T13:26:03;29.30;34.90
19224;DHT22;9746;47.180;9.776;2024-03-25T13:28:29;30.10;35.80
19224;DHT22;9746;47.180;9.776;2024-03-25T13:34:01;29.80;32.60
19224;DHT22;9746;47.180;9.776;2024-03-25T13:36:36;30.20;33.40
19224;DHT22;9746;47.180;9.776;2024-03-25T13:39:03;30.20;34.80
19224;DHT22;9746;47.180;9.776;2024-03-25T13:44:28;30.50;33.70
19224;DHT22;9746;47.180;9.776;2024-03-25T13:46:59;28.30;33.00
19224;DHT22;9746;47.180;9.776;2024-03-25T13:49:25;26.10;35.00
19224;DHT22;9746;47.180;9.776;2024-03-25T13:52:12;26.00;36.10
19224;DHT22;9746;47.180;9.776;2024-03-25T13:54:38;26.20;36.80
19224;DHT22;9746;47.180;9.776;2024-03-25T13:57:33;25.50;35.00
19224;DHT22;9746;47.180;9.776;2024-03-25T14:00:00;25.10;35.60
19224;DHT22;9746;47.180;9.776;2024-03-25T14:02:52;25.70;38.10
19224;DHT22;9746;47.180;9.776;2024-03-25T14:05:18;25.30;38.30
19224;DHT22;9746;47.180;9.776;2024-03-25T14:08:12;24.90;38.70
19224;DHT22;9746;47.180;9.776;2024-03-25T14:10:39;24.20;40.80
19224;DHT22;9746;47.180;9.776;2024-03-25T14:13:27;23.60;38.40
19224;DHT22;9746;47.180;9.776;2024-03-25T14:15:56;22.90;38.40
19224;DHT22;9746;47.180;9.776;2024-03-25T14:18:22;22.40;39.20
19224;DHT22;9746;47.180;9.776;2024-03-25T14:20:51;22.50;40.80
19224;DHT22;9746;47.180;9.776;2024-03-25T14:23:19;23.00;39.90
19224;DHT22;9746;47.180;9.776;2024-03-25T14:25:45;23.50;39.60
19224;DHT22;9746;47.180;9.776;2024-03-25T14:31:34;24.30;38.30
19224;DHT22;9746;47.180;9.776;2024-03-25T14:34:04;25.30;38.40
19224;DHT22;9746;47.180;9.776;2024-03-25T14:36:49;25.00;39.20
19224;DHT22;9746;47.180;9.776;2024-03-25T14:39:17;25.40;40.70
19224;DHT22;9746;47.180;9.776;2024-03-25T14:41:47;24.30;40.40
19224;DHT22;9746;47.180;9.776;2024-03-25T14:44:13;24.50;42.50
19224;DHT22;9746;47.180;9.776;2024-03-25T14:47:03;25.50;40.60
19224;DHT22;9746;47.180;9.776;2024-03-25T14:49:30;26.10;40.00
19224;DHT22;9746;47.180;9.776;2024-03-25T14:52:03;27.00;36.40
19224;DHT22;9746;47.180;9.776;2024-03-25T14:54:36;27.20;35.00
19224;DHT22;9746;47.180;9.776;2024-03-25T14:57:07;27.10;37.80
19224;DHT22;9746;47.180;9.776;2024-03-25T14:59:34;27.40;39.60
19224;DHT22;9746;47.180;9.776;2024-03-25T15:02:05;28.20;39.60
19224;DHT22;9746;47.180;9.776;2024-03-25T15:04:31;27.80;38.00
19224;DHT22;9746;47.180;9.776;2024-03-25T15:06:59;27.80;36.90
19224;DHT22;9746;47.180;9.776;2024-03-25T15:09:25;28.10;38.00
19224;DHT22;9746;47.180;9.776;2024-03-25T15:11:57;26.90;38.00
19224;DHT22;9746;47.180;9.776;2024-03-25T15:14:23;26.80;37.10
19224;DHT22;9746;47.180;9.776;2024-03-25T15:17:07;26.60;40.00
19224;DHT22;9746;47.180;9.776;2024-03-25T15:19:33;27.00;38.40
19224;DHT22;9746;47.180;9.776;2024-03-25T15:22:02;27.40;39.00
19224;DHT22;9746;47.180;9.776;2024-03-25T15:24:28;28.10;37.80
19224;DHT22;9746;47.180;9.776;2024-03-25T15:27:02;29.30;36.70
19224;DHT22;9746;47.180;9.776;2024-03-25T15:29:28;29.90;35.20
19224;DHT22;9746;47.180;9.776;2024-03-25T15:31:58;30.00;36.30
19224;DHT22;9746;47.180;9.776;2024-03-25T15:34:25;29.80;34.70
19224;DHT22;9746;47.180;9.776;2024-03-25T15:36:55;28.50;35.60
19224;DHT22;9746;47.180;9.776;2024-03-25T15:39:21;28.00;37.50
19224;DHT22;9746;47.180;9.776;2024-03-25T15:41:49;28.20;35.80
19224;DHT22;9746;47.180;9.776;2024-03-25T15:44:17;27.50;36.60
19224;DHT22;9746;47.180;9.776;2024-03-25T15:47:05;27.60;36.10
19224;DHT22;9746;47.180;9.776;2024-03-25T15:49:32;27.80;35.90
19224;DHT22;9746;47.180;9.776;2024-03-25T15:51:58;28.20;37.00
19224;DHT22;9746;47.180;9.776;2024-03-25T15:54:25;28.00;36.70
19224;DHT22;9746;47.180;9.776;2024-03-25T15:56:55;27.50;38.00
19224;DHT22;9746;47.180;9.776;2024-03-25T15:59:23;25.80;39.20
19224;DHT22;9746;47.180;9.776;2024-03-25T16:01:59;24.30;40.50
19224;DHT22;9746;47.180;9.776;2024-03-25T16:04:25;22.90;40.00
19224;DHT22;9746;47.180;9.776;2024-03-25T16:06:52;21.90;41.10
19224;DHT22;9746;47.180;9.776;2024-03-25T16:09:19;21.10;42.10
19224;DHT22;9746;47.180;9.776;2024-03-25T16:11:50;20.20;47.50
19224;DHT22;9746;47.180;9.776;2024-03-25T16:14:17;19.50;45.30
19224;DHT22;9746;47.180;9.776;2024-03-25T16:16:55;18.80;45.60
19224;DHT22;9746;47.180;9.776;2024-03-25T16:19:21;18.50;45.50
19224;DHT22;9746;47.180;9.776;2024-03-25T16:21:49;18.00;46.00
19224;DHT22;9746;47.180;9.776;2024-03-25T16:24:16;17.80;48.10
19224;DHT22;9746;47.180;9.776;2024-03-25T16:26:45;17.20;50.40
19224;DHT22;9746;47.180;9.776;2024-03-25T16:29:12;16.90;50.30
19224;DHT22;9746;47.180;9.776;2024-03-25T16:31:38;16.40;51.30
19224;DHT22;9746;47.180;9.776;2024-03-25T16:34:08;16.30;52.30
19224;DHT22;9746;47.180;9.776;2024-03-25T16:36:34;16.00;51.80
19224;DHT22;9746;47.180;9.776;2024-03-25T16:41:52;15.70;51.30
19224;DHT22;9746;47.180;9.776;2024-03-25T16:44:18;15.40;51.00
19224;DHT22;9746;47.180;9.776;2024-03-25T16:46:44;15.20;52.00
19224;DHT22;9746;47.180;9.776;2024-03-25T16:49:13;15.10;51.50
19224;DHT22;9746;47.180;9.776;2024-03-25T16:51:39;15.10;52.70
19224;DHT22;9746;47.180;9.776;2024-03-25T16:54:07;15.00;52.50
19224;DHT22;9746;47.180;9.776;2024-03-25T16:56:33;14.90;53.90
19224;DHT22;9746;47.180;9.776;2024-03-25T16:59:16;14.90;53.90
19224;DHT22;9746;47.180;9.776;2024-03-25T17:01:42;14.70;56.50
19224;DHT22;9746;47.180;9.776;2024-03-25T17:04:16;14.50;57.40
19224;DHT22;9746;47.180;9.776;2024-03-25T17:06:42;14.40;58.80
19224;DHT22;9746;47.180;9.776;2024-03-25T17:09:26;13.70;59.70
19224;DHT22;9746;47.180;9.776;2024-03-25T17:11:52;13.20;63.50
19224;DHT22;9746;47.180;9.776;2024-03-25T17:17:10;13.00;59.20
19224;DHT22;9746;47.180;9.776;2024-03-25T17:19:38;13.00;60.90
19224;DHT22;9746;47.180;9.776;2024-03-25T17:22:05;13.10;65.80
19224;DHT22;9746;47.180;9.776;2024-03-25T17:24:31;13.10;64.50
19224;DHT22;9746;47.180;9.776;2024-03-25T17:26:57;13.00;63.60
19224;DHT22;9746;47.180;9.776;2024-03-25T17:29:25;13.00;67.40
19224;DHT22;9746;47.180;9.776;2024-03-25T17:31:51;12.80;69.80
19224;DHT22;9746;47.180;9.776;2024-03-25T17:34:20;12.60;67.20
19224;DHT22;9746;47.180;9.776;2024-03-25T17:36:48;12.50;65.10
19224;DHT22;9746;47.180;9.776;2024-03-25T17:39:24;12.40;65.80
19224;DHT22;9746;47.180;9.776;2024-03-25T17:41:51;12.40;71.90
19224;DHT22;9746;47.180;9.776;2024-03-25T17:44:34;12.30;73.60
19224;DHT22;9746;47.180;9.776;2024-03-25T17:47:08;12.10;75.10
19224;DHT22;9746;47.180;9.776;2024-03-25T17:49:53;11.90;76.70
19224;DHT22;9746;47.180;9.776;2024-03-25T17:52:23;11.90;77.80
19224;DHT22;9746;47.180;9.776;2024-03-25T17:54:49;11.80;79.40
19224;DHT22;9746;47.180;9.776;2024-03-25T17:57:15;11.60;79.70
19224;DHT22;9746;47.180;9.776;2024-03-25T17:59:44;11.50;80.30
19224;DHT22;9746;47.180;9.776;2024-03-25T18:02:11;11.40;80.80
19224;DHT22;9746;47.180;9.776;2024-03-25T18:04:42;11.20;80.90
19224;DHT22;9746;47.180;9.776;2024-03-25T18:07:09;11.10;81.60
19224;DHT22;9746;47.180;9.776;2024-03-25T18:09:40;11.00;84.20
19224;DHT22;9746;47.180;9.776;2024-03-25T18:12:07;10.90;84.10
19224;DHT22;9746;47.180;9.776;2024-03-25T18:14:56;10.80;86.40
19224;DHT22;9746;47.180;9.776;2024-03-25T18:17:22;10.70;85.90
19224;DHT22;9746;47.180;9.776;2024-03-25T18:19:53;10.50;87.90
19224;DHT22;9746;47.180;9.776;2024-03-25T18:22:19;10.40;87.30
19224;DHT22;9746;47.180;9.776;2024-03-25T18:24:47;10.20;89.00
19224;DHT22;9746;47.180;9.776;2024-03-25T18:27:14;10.10;90.00
19224;DHT22;9746;47.180;9.776;2024-03-25T18:29:40;10.00;90.20
19224;DHT22;9746;47.180;9.776;2024-03-25T18:32:07;9.90;91.20
19224;DHT22;9746;47.180;9.776;2024-03-25T18:34:33;9.80;92.10
19224;DHT22;9746;47.180;9.776;2024-03-25T18:37:00;9.60;92.70
19224;DHT22;9746;47.180;9.776;2024-03-25T18:39:26;9.50;92.90
19224;DHT22;9746;47.180;9.776;2024-03-25T18:41:55;9.40;93.20
19224;DHT22;9746;47.180;9.776;2024-03-25T18:44:23;9.30;93.60
19224;DHT22;9746;47.180;9.776;2024-03-25T18:46:50;9.20;93.60
19224;DHT22;9746;47.180;9.776;2024-03-25T18:49:19;9.20;94.50
19224;DHT22;9746;47.180;9.776;2024-03-25T18:51:46;9.00;94.30
19224;DHT22;9746;47.180;9.776;2024-03-25T18:54:16;8.90;94.30
19224;DHT22;9746;47.180;9.776;2024-03-25T18:56:42;8.80;94.70
19224;DHT22;9746;47.180;9.776;2024-03-25T18:59:12;8.70;95.50
19224;DHT22;9746;47.180;9.776;2024-03-25T19:01:38;8.60;96.00
19224;DHT22;9746;47.180;9.776;2024-03-25T19:07:11;8.30;97.10
19224;DHT22;9746;47.180;9.776;2024-03-25T19:10:13;8.30;97.10
19224;DHT22;9746;47.180;9.776;2024-03-25T19:12:40;8.20;97.50
19224;DHT22;9746;47.180;9.776;2024-03-25T19:15:09;8.10;97.40
19224;DHT22;9746;47.180;9.776;2024-03-25T19:17:35;8.00;97.60
19224;DHT22;9746;47.180;9.776;2024-03-25T19:20:03;8.00;98.70
19224;DHT22;9746;47.180;9.776;2024-03-25T19:22:30;7.90;99.00
19224;DHT22;9746;47.180;9.776;2024-03-25T19:24:56;7.80;98.40
19224;DHT22;9746;47.180;9.776;2024-03-25T19:27:23;7.70;99.60
19224;DHT22;9746;47.180;9.776;2024-03-25T19:29:59;7.60;99.80
19224;DHT22;9746;47.180;9.776;2024-03-25T19:32:27;7.60;99.90
19224;DHT22;9746;47.180;9.776;2024-03-25T19:35:16;7.40;99.90
19224;DHT22;9746;47.180;9.776;2024-03-25T19:37:42;7.20;99.90
19224;DHT22;9746;47.180;9.776;2024-03-25T19:40:11;7.20;99.90
19224;DHT22;9746;47.180;9.776;2024-03-25T19:42:38;7.10;99.90
19224;DHT22;9746;47.180;9.776;2024-03-25T19:45:20;7.00;99.90
19224;DHT22;9746;47.180;9.776;2024-03-25T19:47:49;6.90;99.90
19224;DHT22;9746;47.180;9.776;2024-03-25T19:50:17;6.90;99.90
19224;DHT22;9746;47.180;9.776;2024-03-25T19:52:43;6.80;99.90
19224;DHT22;9746;47.180;9.776;2024-03-25T19:55:15;6.90;99.90
19224;DHT22;9746;47.180;9.776;2024-03-25T19:57:42;6.80;99.90
19224;DHT22;9746;47.180;9.776;2024-03-25T20:00:45;6.80;99.90
19224;DHT22;9746;47.180;9.776;2024-03-25T20:03:13;6.70;99.90
19224;DHT22;9746;47.180;9.776;2024-03-25T20:05:40;6.60;99.90
19224;DHT22;9746;47.180;9.776;2024-03-25T20:08:06;6.60;99.90
19224;DHT22;9746;47.180;9.776;2024-03-25T20:14:08;6.60;99.90
19224;DHT22;9746;47.180;9.776;2024-03-25T20:16:36;6.60;99.90
19224;DHT22;9746;47.180;9.776;2024-03-25T20:19:06;6.70;99.90
19224;DHT22;9746;47.180;9.776;2024-03-25T20:21:32;6.70;99.90
19224;DHT22;9746;47.180;9.776;2024-03-25T20:24:11;6.70;99.90
19224;DHT22;9746;47.180;9.776;2024-03-25T20:26:37;6.60;99.90
19224;DHT22;9746;47.180;9.776;2024-03-25T20:29:04;6.70;99.90
19224;DHT22;9746;47.180;9.776;2024-03-25T20:31:30;6.70;99.90
19224;DHT22;9746;47.180;9.776;2024-03-25T20:33:57;6.70;99.90
19224;DHT22;9746;47.180;9.776;2024-03-25T20:36:24;6.70;99.90
19224;DHT22;9746;47.180;9.776;2024-03-25T20:38:58;6.80;99.90
19224;DHT22;9746;47.180;9.776;2024-03-25T20:41:24;6.90;99.90
19224;DHT22;9746;47.180;9.776;2024-03-25T20:43:54;6.90;99.90
19224;DHT22;9746;47.180;9.776;2024-03-25T20:46:20;6.90;99.90
19224;DHT22;9746;47.180;9.776;2024-03-25T20:48:57;7.10;99.90
19224;DHT22;9746;47.180;9.776;2024-03-25T20:51:25;7.20;99.90
19224;DHT22;9746;47.180;9.776;2024-03-25T20:54:19;7.30;99.90
19224;DHT22;9746;47.180;9.776;2024-03-25T20:56:45;7.50;96.90
19224;DHT22;9746;47.180;9.776;2024-03-25T20:59:30;7.70;96.50
19224;DHT22;9746;47.180;9.776;2024-03-25T21:01:56;7.90;97.40
19224;DHT22;9746;47.180;9.776;2024-03-25T21:07:56;8.40;92.60
19224;DHT22;9746;47.180;9.776;2024-03-25T21:10:22;8.70;92.10
19224;DHT22;9746;47.180;9.776;2024-03-25T21:12:49;8.90;94.60
